SAS841 ENGM-LSZH
Flight info
| Callsign | SAS841 |
|---|---|
| Flight time | N/A |
| Altitude | 37000 |
| Route | VIPPA DCT AMRAK DCT SWALM DCT OMOGI T721 RILAX |
| Aircraft | A320/M-SDE3FGHIJ1RWXYZ/ALB1 |
Departure
| Time | 2026-04-30 09:20 |
|---|---|
| Airport | Oslo-Gardermoen International Airport (ENGM) |
Arrival
| Time | N/A |
|---|---|
| Airport | Zürich Airport (LSZH) |
| Time | Latitude | Longitude | Altitude | Speed | Heading |
|---|---|---|---|---|---|
| 2026-04-30 07:57 | 60.19445 | 11.10236 | 685 ft | 0 kts | 196° |
| 2026-04-30 09:09 | 60.19446 | 11.10236 | 685 ft | 1 kts | 196° |
| 2026-04-30 09:09 | 60.19469 | 11.10250 | 685 ft | 4 kts | 198° |
| 2026-04-30 09:09 | 60.19495 | 11.10268 | 683 ft | 4 kts | 205° |
| 2026-04-30 09:09 | 60.19517 | 11.10295 | 683 ft | 4 kts | 228° |
| 2026-04-30 09:10 | 60.19529 | 11.10330 | 683 ft | 4 kts | 242° |
| 2026-04-30 09:10 | 60.19543 | 11.10374 | 678 ft | 4 kts | 208° |
| 2026-04-30 09:10 | 60.19564 | 11.10389 | 684 ft | 4 kts | 196° |
| 2026-04-30 09:10 | 60.19590 | 11.10404 | 684 ft | 4 kts | 196° |
| 2026-04-30 09:11 | 60.19615 | 11.10419 | 684 ft | 4 kts | 196° |
| 2026-04-30 09:11 | 60.19641 | 11.10434 | 682 ft | 4 kts | 196° |
| 2026-04-30 09:11 | 60.19667 | 11.10449 | 684 ft | 4 kts | 196° |
| 2026-04-30 09:11 | 60.19678 | 11.10455 | 684 ft | 1 kts | 196° |
| 2026-04-30 09:13 | 60.19677 | 11.10454 | 684 ft | 1 kts | 196° |
| 2026-04-30 09:14 | 60.19655 | 11.10441 | 681 ft | 5 kts | 195° |
| 2026-04-30 09:14 | 60.19610 | 11.10452 | 682 ft | 9 kts | 141° |
| 2026-04-30 09:14 | 60.19588 | 11.10578 | 683 ft | 10 kts | 105° |
| 2026-04-30 09:14 | 60.19566 | 11.10730 | 683 ft | 12 kts | 108° |
| 2026-04-30 09:15 | 60.19537 | 11.10909 | 683 ft | 15 kts | 107° |
| 2026-04-30 09:15 | 60.19512 | 11.11103 | 681 ft | 10 kts | 107° |
| 2026-04-30 09:15 | 60.19490 | 11.11257 | 678 ft | 12 kts | 105° |
| 2026-04-30 09:15 | 60.19468 | 11.11421 | 681 ft | 10 kts | 95° |
| 2026-04-30 09:16 | 60.19510 | 11.11501 | 682 ft | 9 kts | 15° |
| 2026-04-30 09:16 | 60.19577 | 11.11539 | 683 ft | 11 kts | 16° |
| 2026-04-30 09:16 | 60.19650 | 11.11583 | 683 ft | 11 kts | 17° |
| 2026-04-30 09:16 | 60.19721 | 11.11624 | 684 ft | 11 kts | 15° |
| 2026-04-30 09:17 | 60.19800 | 11.11669 | 685 ft | 12 kts | 16° |
| 2026-04-30 09:17 | 60.19883 | 11.11717 | 686 ft | 12 kts | 15° |
| 2026-04-30 09:17 | 60.19964 | 11.11763 | 682 ft | 12 kts | 16° |
| 2026-04-30 09:17 | 60.20050 | 11.11819 | 682 ft | 14 kts | 28° |
| 2026-04-30 09:18 | 60.20056 | 11.11972 | 688 ft | 11 kts | 106° |
| 2026-04-30 09:18 | 60.20031 | 11.12109 | 687 ft | 11 kts | 118° |
| 2026-04-30 09:18 | 60.19972 | 11.12163 | 685 ft | 9 kts | 194° |
| 2026-04-30 09:18 | 60.19968 | 11.12160 | 688 ft | 0 kts | 195° |
| 2026-04-30 09:19 | 60.19967 | 11.12160 | 688 ft | 2 kts | 195° |
| 2026-04-30 09:19 | 60.19710 | 11.12013 | 680 ft | 74 kts | 196° |
| 2026-04-30 09:19 | 60.19035 | 11.11623 | 684 ft | 128 kts | 196° |
| 2026-04-30 09:19 | 60.18046 | 11.11056 | 844 ft | 154 kts | 195° |
| 2026-04-30 09:20 | 60.17032 | 11.10465 | 1487 ft | 152 kts | 195° |
| 2026-04-30 09:20 | 60.16002 | 11.09888 | 2016 ft | 157 kts | 195° |
| 2026-04-30 09:20 | 60.14879 | 11.09288 | 2362 ft | 177 kts | 195° |
| 2026-04-30 09:20 | 60.13631 | 11.08644 | 2685 ft | 195 kts | 195° |
| 2026-04-30 09:21 | 60.12228 | 11.08064 | 3081 ft | 218 kts | 189° |
| 2026-04-30 09:21 | 60.10664 | 11.07651 | 3507 ft | 241 kts | 188° |
| 2026-04-30 09:21 | 60.08928 | 11.07263 | 4065 ft | 259 kts | 187° |
| 2026-04-30 09:21 | 60.07112 | 11.06883 | 4947 ft | 265 kts | 187° |
| 2026-04-30 09:22 | 60.05289 | 11.06249 | 5810 ft | 268 kts | 200° |
| 2026-04-30 09:22 | 60.03519 | 11.05010 | 6672 ft | 271 kts | 202° |
| 2026-04-30 09:22 | 60.01731 | 11.03719 | 7461 ft | 276 kts | 202° |
| 2026-04-30 09:22 | 59.99908 | 11.02389 | 8235 ft | 281 kts | 203° |
| 2026-04-30 09:23 | 59.98057 | 11.01039 | 9003 ft | 286 kts | 203° |
| 2026-04-30 09:23 | 59.96167 | 10.99664 | 9764 ft | 292 kts | 203° |
| 2026-04-30 09:23 | 59.94270 | 10.98285 | 10480 ft | 297 kts | 203° |
| 2026-04-30 09:23 | 59.92279 | 10.96838 | 10872 ft | 315 kts | 203° |
| 2026-04-30 09:24 | 59.90139 | 10.95285 | 11095 ft | 337 kts | 202° |
| 2026-04-30 09:24 | 59.87905 | 10.93673 | 11612 ft | 345 kts | 202° |
| 2026-04-30 09:24 | 59.85631 | 10.92044 | 12236 ft | 351 kts | 202° |
| 2026-04-30 09:24 | 59.83320 | 10.90398 | 12868 ft | 355 kts | 202° |
| 2026-04-30 09:25 | 59.80972 | 10.88730 | 13518 ft | 360 kts | 201° |
| 2026-04-30 09:25 | 59.78635 | 10.87063 | 14166 ft | 364 kts | 201° |
| 2026-04-30 09:25 | 59.76241 | 10.85353 | 14753 ft | 368 kts | 202° |
| 2026-04-30 09:26 | 59.75305 | 10.84685 | 14932 ft | 369 kts | 202° |
| 2026-04-30 09:26 | 59.72756 | 10.83341 | 15226 ft | 377 kts | 197° |
| 2026-04-30 09:26 | 59.70264 | 10.81783 | 15963 ft | 376 kts | 201° |
| 2026-04-30 09:26 | 59.67816 | 10.79942 | 16562 ft | 378 kts | 204° |
| 2026-04-30 09:27 | 59.65367 | 10.77976 | 17152 ft | 381 kts | 204° |
| 2026-04-30 09:27 | 59.62934 | 10.76037 | 17730 ft | 384 kts | 204° |
| 2026-04-30 09:27 | 59.60438 | 10.74121 | 18313 ft | 387 kts | 202° |
| 2026-04-30 09:27 | 59.57898 | 10.72255 | 18875 ft | 391 kts | 202° |
| 2026-04-30 09:28 | 59.55326 | 10.70436 | 19406 ft | 394 kts | 201° |
| 2026-04-30 09:28 | 59.52660 | 10.69111 | 19951 ft | 399 kts | 191° |
| 2026-04-30 09:28 | 59.49914 | 10.68186 | 20520 ft | 401 kts | 191° |
| 2026-04-30 09:28 | 59.47158 | 10.67227 | 21067 ft | 404 kts | 192° |
| 2026-04-30 09:29 | 59.44385 | 10.66237 | 21570 ft | 406 kts | 192° |
| 2026-04-30 09:29 | 59.41628 | 10.65241 | 22091 ft | 409 kts | 192° |
| 2026-04-30 09:29 | 59.38821 | 10.64227 | 22590 ft | 412 kts | 192° |
| 2026-04-30 09:29 | 59.35993 | 10.63214 | 23103 ft | 415 kts | 192° |
| 2026-04-30 09:30 | 59.33143 | 10.62202 | 23612 ft | 418 kts | 192° |
| 2026-04-30 09:30 | 59.30275 | 10.61188 | 24194 ft | 420 kts | 192° |
| 2026-04-30 09:30 | 59.27390 | 10.60165 | 24603 ft | 423 kts | 192° |
| 2026-04-30 09:30 | 59.24487 | 10.59140 | 25015 ft | 425 kts | 192° |
| 2026-04-30 09:31 | 59.21569 | 10.58113 | 25407 ft | 427 kts | 192° |
| 2026-04-30 09:31 | 59.18677 | 10.57096 | 25796 ft | 429 kts | 192° |
| 2026-04-30 09:31 | 59.15736 | 10.56062 | 26113 ft | 431 kts | 192° |
| 2026-04-30 09:31 | 59.12778 | 10.55026 | 26505 ft | 433 kts | 192° |
| 2026-04-30 09:32 | 59.09827 | 10.53833 | 26886 ft | 433 kts | 198° |
| 2026-04-30 09:32 | 59.07031 | 10.51775 | 27246 ft | 433 kts | 208° |